Portada
METAR-TAF:

METAR-TAF

Aeroports :

Memanbetsu, Japó

latitud: 43-53N, longitud: 144-10E, altitud: 33 m

Observació

L'informe es va fer fa 11 hores i 11 minuts, a les 11:00 UTC
Vent 3 kt del Sud/Sud-Est
Temperatura 7°C
Humitat 87%
Pressió 1019 hPa
Visibilitat 10 km o més
Escasses núvols a una alçada de 2000 ft
Núvols disperses a una alçada de 4000 ft

METAR: RJCM 231100Z 16003KT 9999 FEW020 SCT040 07/05 Q1019

Hora: 07:11 (22:11 UTC)

Pronòstic

L'informe es va fer fa 4 hores i 59 minuts, a les 17:12 UTC
Pronòstic vàlid del 23 a les 18 UTC al 25 a les 00 UTC
Vent 10 kt del Nord
Visibilitat 10 km o més
Escasses núvols a una alçada de 1500 ft
Núvols disperses a una alçada de 3000 ft
Evolucionant progressivament
l' 24 a les 09 UTC al 24 a les 12 UTC
Vent 6 kt del Sud

TAF: RJCM 231712Z 2318/2500 36010KT 9999 FEW015 SCT030 BECMG 2409/2412 17006KT

Observacions i pronòstics meteorològics de més de 4000 aeroports (METAR i TAF).

Les estacions disponibles són els punts grocs i vermells al mapa.

Posi el ratolí al punt desitjat per veure el nom de l'estació.

Feu clic per veure les observacions i els pronòstics meteorològics.

Per canviar el mapa: feu clic els botons verds amb una creu de color negre per apropar; al botó verd amb un guió per allunyar la imatge; o en les fletxes verdes per a mapes adjacents.


METAR-TAF: